createdAt,value
2023-04-22T00:01:04.475Z,13.30
2023-04-22T00:03:32.881Z,13.30
2023-04-22T00:06:00.135Z,13.30
2023-04-22T00:08:27.312Z,13.30
2023-04-22T00:10:54.184Z,13.20
2023-04-22T00:13:21.080Z,13.10
2023-04-22T00:15:47.994Z,13.10
2023-04-22T00:18:14.999Z,13.10
2023-04-22T00:20:43.777Z,13.10
2023-04-22T00:23:12.792Z,13.00
2023-04-22T00:25:40.617Z,13.00
2023-04-22T00:28:07.502Z,13.00
2023-04-22T00:30:35.250Z,12.90
2023-04-22T00:33:02.190Z,12.90
2023-04-22T00:35:29.590Z,12.80
2023-04-22T00:37:56.525Z,12.80
2023-04-22T00:40:23.417Z,12.80
2023-04-22T00:42:50.946Z,12.70
2023-04-22T00:45:19.369Z,12.70
2023-04-22T00:47:46.636Z,12.70
2023-04-22T00:50:13.867Z,12.70
2023-04-22T00:52:40.781Z,12.70
2023-04-22T00:55:08.566Z,12.60
2023-04-22T00:57:36.068Z,12.60
2023-04-22T01:00:04.800Z,12.50
2023-04-22T01:02:32.125Z,12.60
2023-04-22T01:05:00.029Z,12.50
2023-04-22T01:07:27.039Z,12.50
2023-04-22T01:09:53.955Z,12.50
2023-04-22T01:12:20.785Z,12.50
2023-04-22T01:14:47.690Z,12.50
2023-04-22T01:17:16.253Z,12.40
2023-04-22T01:19:44.375Z,12.40
2023-04-22T01:22:13.758Z,12.50
2023-04-22T01:24:40.944Z,12.40
2023-04-22T01:27:08.879Z,12.30
2023-04-22T01:29:38.422Z,12.30
2023-04-22T01:32:06.342Z,12.30
2023-04-22T01:34:33.272Z,12.30
2023-04-22T01:37:00.154Z,12.30
2023-04-22T01:39:27.510Z,12.30
2023-04-22T01:41:55.687Z,12.30
2023-04-22T01:44:22.737Z,12.20
2023-04-22T01:46:50.104Z,12.30
2023-04-22T01:49:16.918Z,12.20
2023-04-22T01:51:43.742Z,12.10
2023-04-22T01:54:10.903Z,12.10
2023-04-22T01:56:38.933Z,12.00
2023-04-22T01:59:06.034Z,12.00
2023-04-22T02:01:35.859Z,11.90
2023-04-22T02:04:02.829Z,11.90
2023-04-22T02:06:29.743Z,11.90
2023-04-22T02:08:56.573Z,11.90
2023-04-22T02:11:23.335Z,11.80
2023-04-22T02:13:50.985Z,11.80
2023-04-22T02:16:17.938Z,11.70
2023-04-22T02:18:44.918Z,11.70
2023-04-22T02:21:11.750Z,11.70
2023-04-22T02:23:41.388Z,11.70
2023-04-22T02:26:08.722Z,11.80
2023-04-22T02:28:35.656Z,11.70
2023-04-22T02:31:02.747Z,11.80
2023-04-22T02:33:29.703Z,11.80
2023-04-22T02:35:56.459Z,11.80
2023-04-22T02:38:23.697Z,11.80
2023-04-22T02:40:50.517Z,11.80
2023-04-22T02:43:17.528Z,11.80
2023-04-22T02:45:44.494Z,11.80
2023-04-22T02:48:11.500Z,11.80
2023-04-22T02:50:38.388Z,11.80
2023-04-22T02:53:05.309Z,11.70
2023-04-22T02:55:32.175Z,11.70
2023-04-22T02:57:59.038Z,11.70
2023-04-22T03:00:26.173Z,11.70
2023-04-22T03:02:53.579Z,11.70
2023-04-22T03:05:25.308Z,11.70
2023-04-22T03:07:52.152Z,11.70
2023-04-22T03:10:19.405Z,11.70
2023-04-22T03:12:46.236Z,11.70
2023-04-22T03:15:13.247Z,11.70
2023-04-22T03:17:39.986Z,11.60
2023-04-22T03:20:11.771Z,11.70
2023-04-22T03:22:38.662Z,11.70
2023-04-22T03:25:07.750Z,11.70
2023-04-22T03:27:34.644Z,11.70
2023-04-22T03:30:01.456Z,11.70
2023-04-22T03:32:28.469Z,11.70
2023-04-22T03:35:13.103Z,11.70
2023-04-22T03:37:40.002Z,11.70
2023-04-22T03:40:09.628Z,11.80
2023-04-22T03:42:37.371Z,11.80
2023-04-22T03:45:05.305Z,11.70
2023-04-22T03:47:36.516Z,11.80
2023-04-22T03:50:13.167Z,11.80
2023-04-22T03:52:40.375Z,11.80
2023-04-22T03:55:07.529Z,11.80
2023-04-22T03:57:35.799Z,11.80
2023-04-22T04:00:02.900Z,11.80
2023-04-22T04:02:30.442Z,11.80
2023-04-22T04:04:59.399Z,11.80
2023-04-22T04:07:26.747Z,11.90
2023-04-22T04:09:53.728Z,11.90
2023-04-22T04:12:20.600Z,11.90
2023-04-22T04:14:47.574Z,11.90
2023-04-22T04:17:18.352Z,11.90
2023-04-22T04:19:45.479Z,11.90
2023-04-22T04:22:12.399Z,11.90
2023-04-22T04:24:49.810Z,11.90
2023-04-22T04:27:23.748Z,12.00
2023-04-22T04:29:53.234Z,11.90
2023-04-22T04:32:34.486Z,11.90
2023-04-22T04:35:05.012Z,12.00
2023-04-22T04:37:32.076Z,11.90
2023-04-22T04:40:04.799Z,11.90
2023-04-22T04:42:43.493Z,11.90
2023-04-22T04:45:17.668Z,11.90
2023-04-22T04:47:46.228Z,11.90
2023-04-22T04:50:22.755Z,11.90
2023-04-22T04:52:51.628Z,11.90
2023-04-22T04:55:24.158Z,11.90
2023-04-22T04:57:51.775Z,12.00
2023-04-22T05:00:19.045Z,12.00
2023-04-22T05:02:46.635Z,12.00
2023-04-22T05:05:13.946Z,12.00
2023-04-22T05:07:43.154Z,12.00
2023-04-22T05:10:11.979Z,12.10
2023-04-22T05:12:39.211Z,12.00
2023-04-22T05:15:09.174Z,12.10
2023-04-22T05:17:37.865Z,12.10
2023-04-22T05:20:05.219Z,12.10
2023-04-22T05:22:32.180Z,12.10
2023-04-22T05:24:59.020Z,12.10
2023-04-22T05:27:25.937Z,12.10
2023-04-22T05:29:53.098Z,12.30
2023-04-22T05:32:25.391Z,12.30
2023-04-22T05:34:53.009Z,12.30
2023-04-22T05:37:19.905Z,12.30
2023-04-22T05:39:47.697Z,12.40
2023-04-22T05:42:15.064Z,12.40
2023-04-22T05:44:42.763Z,12.50
2023-04-22T05:47:09.694Z,12.60
2023-04-22T05:49:36.535Z,12.60
2023-04-22T05:52:03.529Z,12.80
2023-04-22T05:54:40.215Z,12.80
2023-04-22T05:57:08.305Z,12.80
2023-04-22T05:59:35.227Z,12.80
2023-04-22T06:02:02.468Z,12.90
2023-04-22T06:04:30.054Z,12.90
2023-04-22T06:06:57.183Z,13.00
2023-04-22T06:09:24.611Z,13.10
2023-04-22T06:11:51.774Z,13.10
2023-04-22T06:14:19.183Z,13.20
2023-04-22T06:16:47.233Z,13.20
2023-04-22T06:19:14.070Z,13.30
2023-04-22T06:21:42.559Z,13.40
2023-04-22T06:24:10.366Z,13.50
2023-04-22T06:26:38.010Z,13.60
2023-04-22T06:29:05.640Z,13.70
2023-04-22T06:31:34.087Z,13.80
2023-04-22T06:34:00.904Z,13.90
2023-04-22T06:36:30.279Z,14.10
2023-04-22T06:39:01.108Z,14.20
2023-04-22T06:41:46.484Z,14.40
2023-04-22T06:44:29.592Z,14.50
2023-04-22T06:47:25.714Z,14.70
2023-04-22T06:49:59.374Z,14.90
2023-04-22T06:52:35.267Z,15.00
2023-04-22T06:55:03.714Z,15.20
2023-04-22T06:57:31.083Z,15.30
2023-04-22T06:59:58.178Z,15.40
2023-04-22T07:02:27.243Z,15.60
2023-04-22T07:04:54.122Z,15.70
2023-04-22T07:07:21.140Z,15.90
2023-04-22T07:09:48.905Z,16.00
2023-04-22T07:12:15.980Z,16.10
2023-04-22T07:14:44.592Z,16.20
2023-04-22T07:17:11.979Z,16.30
2023-04-22T07:19:39.510Z,16.30
2023-04-22T07:22:06.914Z,16.40
2023-04-22T07:24:33.840Z,16.50
2023-04-22T07:27:02.252Z,16.50
2023-04-22T07:29:29.057Z,16.50
2023-04-22T07:31:55.902Z,16.50
2023-04-22T07:34:22.796Z,16.40
2023-04-22T07:36:53.579Z,16.50
2023-04-22T07:39:20.687Z,16.60
2023-04-22T07:41:47.506Z,16.90
2023-04-22T07:44:18.326Z,17.20
2023-04-22T07:46:45.259Z,17.50
2023-04-22T07:49:14.260Z,17.80
2023-04-22T07:51:41.381Z,18.10
2023-04-22T07:54:08.129Z,18.40
2023-04-22T07:56:35.124Z,18.70
2023-04-22T07:59:02.483Z,18.80
2023-04-22T08:01:29.341Z,19.10
2023-04-22T08:03:57.275Z,19.40
2023-04-22T08:06:24.290Z,19.80
2023-04-22T08:08:51.128Z,20.20
2023-04-22T08:11:18.085Z,20.40
2023-04-22T08:13:44.915Z,20.40
2023-04-22T08:16:11.991Z,20.30
2023-04-22T08:18:38.902Z,20.40
2023-04-22T08:21:05.936Z,20.50
2023-04-22T08:23:32.771Z,20.60
2023-04-22T08:25:59.651Z,20.70
2023-04-22T08:28:26.877Z,20.80
2023-04-22T08:30:53.717Z,20.80
2023-04-22T08:33:20.551Z,20.60
2023-04-22T08:35:47.861Z,20.70
2023-04-22T08:38:14.700Z,21.10
2023-04-22T08:40:42.402Z,21.60
2023-04-22T08:43:09.691Z,22.00
2023-04-22T08:45:39.515Z,22.40
2023-04-22T08:48:09.210Z,22.70
2023-04-22T08:50:39.045Z,22.80
2023-04-22T08:53:05.894Z,23.00
2023-04-22T08:55:33.711Z,23.30
2023-04-22T08:58:06.040Z,23.60
2023-04-22T09:00:34.638Z,23.90
2023-04-22T09:03:03.188Z,24.40
2023-04-22T09:05:34.012Z,24.80
2023-04-22T09:08:02.147Z,25.20
2023-04-22T09:10:31.100Z,25.50
2023-04-22T09:13:00.120Z,25.90
2023-04-22T09:15:27.749Z,26.20
2023-04-22T09:17:54.765Z,26.40
2023-04-22T09:20:27.452Z,26.40
2023-04-22T09:22:55.722Z,26.40
2023-04-22T09:25:28.756Z,26.60
2023-04-22T09:27:57.892Z,27.20
2023-04-22T09:30:29.155Z,27.60
2023-04-22T09:32:57.613Z,27.90
2023-04-22T09:35:34.855Z,28.50
2023-04-22T09:38:06.258Z,28.80
2023-04-22T09:40:34.189Z,28.80
2023-04-22T09:43:03.464Z,29.10
2023-04-22T09:45:34.636Z,29.50
2023-04-22T09:48:17.268Z,29.80
2023-04-22T09:50:49.514Z,30.40
2023-04-22T09:53:19.730Z,30.60
2023-04-22T09:55:51.493Z,30.80
2023-04-22T09:58:20.197Z,31.00
2023-04-22T10:00:50.658Z,31.40
2023-04-22T10:03:18.312Z,31.90
2023-04-22T10:05:46.235Z,32.10
2023-04-22T10:08:14.833Z,32.50
2023-04-22T10:10:42.510Z,33.00
2023-04-22T10:13:09.667Z,33.40
2023-04-22T10:15:48.014Z,33.80
2023-04-22T10:18:20.602Z,34.30
2023-04-22T10:20:47.909Z,34.90
2023-04-22T10:23:18.942Z,36.10
2023-04-22T10:25:52.978Z,36.70
2023-04-22T10:28:21.886Z,35.10
2023-04-22T10:30:49.389Z,33.10
2023-04-22T10:33:27.372Z,31.40
2023-04-22T10:36:20.210Z,29.80
2023-04-22T10:38:55.967Z,28.60
2023-04-22T10:41:24.089Z,27.60
2023-04-22T10:43:59.294Z,26.80
2023-04-22T10:46:32.873Z,26.20
2023-04-22T10:49:06.828Z,25.80
2023-04-22T10:51:41.236Z,26.00
2023-04-22T10:54:31.509Z,26.70
2023-04-22T10:57:12.991Z,27.90
2023-04-22T10:59:48.775Z,30.70
2023-04-22T11:02:18.082Z,31.20
2023-04-22T11:04:45.645Z,30.30
2023-04-22T11:07:18.299Z,29.50
2023-04-22T11:09:47.074Z,28.60
2023-04-22T11:12:38.703Z,27.40
2023-04-22T11:15:05.589Z,26.30
2023-04-22T11:17:32.794Z,25.80
2023-04-22T11:20:00.249Z,25.40
2023-04-22T11:22:27.433Z,25.10
2023-04-22T11:24:58.310Z,24.80
2023-04-22T11:27:30.312Z,24.70
2023-04-22T11:30:15.036Z,25.00
2023-04-22T11:32:46.999Z,25.20
2023-04-22T11:35:26.526Z,24.80
2023-04-22T11:37:59.164Z,24.20
2023-04-22T11:40:35.224Z,23.70
2023-04-22T11:43:06.072Z,23.20
2023-04-22T11:45:35.140Z,22.90
2023-04-22T11:48:02.963Z,22.60
2023-04-22T11:50:32.899Z,22.10
2023-04-22T11:53:02.287Z,21.60
2023-04-22T11:55:32.232Z,21.10
2023-04-22T11:57:59.029Z,20.70
2023-04-22T12:00:37.326Z,20.40
2023-04-22T12:03:08.067Z,20.20
2023-04-22T12:05:46.225Z,19.90
2023-04-22T12:08:18.708Z,19.80
2023-04-22T12:10:48.506Z,19.80
2023-04-22T12:13:25.761Z,19.70
2023-04-22T12:16:00.322Z,19.60
2023-04-22T12:18:34.121Z,19.50
2023-04-22T12:21:04.228Z,19.50
2023-04-22T12:23:40.883Z,19.60
2023-04-22T12:26:08.032Z,19.60
2023-04-22T12:28:34.913Z,19.70
2023-04-22T12:31:01.830Z,19.80
2023-04-22T12:33:28.657Z,20.00
2023-04-22T12:35:56.681Z,19.90
2023-04-22T12:38:23.571Z,19.80
2023-04-22T12:40:51.141Z,19.70
2023-04-22T12:43:18.396Z,19.60
2023-04-22T12:45:45.378Z,19.40
2023-04-22T12:48:12.328Z,19.40
2023-04-22T12:50:39.110Z,19.30
2023-04-22T12:53:05.941Z,19.20
2023-04-22T12:55:33.524Z,19.10
2023-04-22T12:58:00.552Z,19.00
2023-04-22T13:00:27.477Z,19.00
2023-04-22T13:02:54.338Z,18.80
2023-04-22T13:05:21.246Z,18.70
2023-04-22T13:07:59.609Z,18.60
2023-04-22T13:10:33.500Z,18.50
2023-04-22T13:13:13.641Z,18.50
2023-04-22T13:15:44.462Z,18.40
2023-04-22T13:18:11.588Z,18.50
2023-04-22T13:20:38.559Z,18.50
2023-04-22T13:23:05.472Z,18.50
2023-04-22T13:25:32.511Z,18.50
2023-04-22T13:27:59.539Z,18.50
2023-04-22T13:30:26.473Z,18.50
2023-04-22T13:32:53.650Z,18.60
2023-04-22T13:35:20.824Z,18.60
2023-04-22T13:37:47.886Z,18.70
2023-04-22T13:40:15.009Z,18.70
2023-04-22T13:42:42.811Z,18.80
2023-04-22T13:45:10.046Z,19.00
2023-04-22T13:47:36.998Z,19.10
2023-04-22T13:50:05.939Z,19.10
2023-04-22T13:52:33.974Z,19.10
2023-04-22T13:55:02.402Z,19.10
2023-04-22T13:57:29.226Z,19.10
2023-04-22T13:59:56.027Z,19.10
2023-04-22T14:02:22.979Z,19.00
2023-04-22T14:04:49.839Z,18.90
2023-04-22T14:07:16.694Z,18.80
2023-04-22T14:09:43.738Z,18.80
2023-04-22T14:12:11.278Z,18.80
2023-04-22T14:14:38.391Z,18.80
2023-04-22T14:17:05.450Z,18.80
2023-04-22T14:19:32.375Z,18.80
2023-04-22T14:21:59.210Z,18.70
2023-04-22T14:24:26.094Z,18.60
2023-04-22T14:26:53.931Z,18.60
2023-04-22T14:29:21.090Z,18.70
2023-04-22T14:31:49.838Z,18.60
2023-04-22T14:34:17.280Z,18.60
2023-04-22T14:36:44.294Z,18.60
2023-04-22T14:39:12.192Z,18.60
2023-04-22T14:41:39.098Z,18.60
2023-04-22T14:44:06.166Z,18.70
2023-04-22T14:46:33.241Z,18.80
2023-04-22T14:49:00.096Z,18.80
2023-04-22T14:51:28.978Z,18.80
2023-04-22T14:53:56.469Z,18.90
2023-04-22T14:56:24.249Z,18.90
2023-04-22T14:58:51.080Z,18.90
2023-04-22T15:01:18.000Z,18.90
2023-04-22T15:03:45.136Z,18.80
2023-04-22T15:06:12.057Z,18.80
2023-04-22T15:08:39.963Z,18.70
2023-04-22T15:11:06.866Z,18.70
2023-04-22T15:13:33.763Z,18.70
2023-04-22T15:16:00.703Z,18.50
2023-04-22T15:18:28.224Z,18.40
2023-04-22T15:20:55.299Z,18.40
2023-04-22T15:23:22.261Z,18.30
2023-04-22T15:25:49.201Z,18.30
2023-04-22T15:28:16.082Z,18.20
2023-04-22T15:30:43.773Z,18.20
2023-04-22T15:33:10.682Z,18.10
2023-04-22T15:35:37.560Z,18.10
2023-04-22T15:38:06.036Z,18.10
2023-04-22T15:40:32.893Z,18.10
2023-04-22T15:42:59.672Z,18.10
2023-04-22T15:45:26.477Z,18.10
2023-04-22T15:47:53.797Z,18.00
2023-04-22T15:50:23.237Z,17.90
2023-04-22T15:52:50.080Z,17.90
2023-04-22T15:55:17.017Z,17.70
2023-04-22T15:57:43.772Z,17.60
2023-04-22T16:00:13.440Z,17.60
2023-04-22T16:02:42.288Z,17.60
2023-04-22T16:05:10.140Z,17.70
2023-04-22T16:07:37.023Z,17.70
2023-04-22T16:10:04.183Z,17.60
2023-04-22T16:12:32.744Z,17.50
2023-04-22T16:15:01.123Z,17.40
2023-04-22T16:17:28.021Z,17.30
2023-04-22T16:19:55.342Z,17.20
2023-04-22T16:22:22.202Z,17.10
2023-04-22T16:24:49.016Z,17.00
2023-04-22T16:27:17.381Z,16.80
2023-04-22T16:29:44.264Z,16.60
2023-04-22T16:32:11.602Z,16.60
2023-04-22T16:34:38.932Z,16.50
2023-04-22T16:37:06.425Z,16.50
2023-04-22T16:39:33.825Z,16.40
2023-04-22T16:42:02.232Z,16.30
2023-04-22T16:44:29.083Z,16.30
2023-04-22T16:46:55.912Z,16.10
2023-04-22T16:49:22.780Z,16.10
2023-04-22T16:51:49.664Z,16.10
2023-04-22T16:54:16.444Z,16.00
2023-04-22T16:56:43.253Z,15.90
2023-04-22T16:59:10.168Z,15.70
2023-04-22T17:01:37.078Z,15.60
2023-04-22T17:04:04.156Z,15.60
2023-04-22T17:06:31.290Z,15.60
2023-04-22T17:08:59.748Z,15.50
2023-04-22T17:11:26.583Z,15.60
2023-04-22T17:13:53.390Z,15.80
2023-04-22T17:16:20.938Z,15.80
2023-04-22T17:18:48.207Z,15.80
2023-04-22T17:21:16.693Z,16.00
2023-04-22T17:23:43.566Z,15.90
2023-04-22T17:26:10.330Z,15.90
2023-04-22T17:28:37.211Z,15.70
2023-04-22T17:31:04.195Z,15.70
2023-04-22T17:33:31.234Z,15.80
2023-04-22T17:35:58.242Z,15.80
2023-04-22T17:38:25.032Z,15.90
2023-04-22T17:40:51.843Z,15.70
2023-04-22T17:43:18.664Z,15.60
2023-04-22T17:45:45.545Z,15.80
2023-04-22T17:48:12.342Z,15.80
2023-04-22T17:50:39.280Z,15.80
2023-04-22T17:53:06.134Z,15.80
2023-04-22T17:55:35.226Z,15.90
2023-04-22T17:58:03.863Z,15.90
2023-04-22T18:00:32.839Z,15.90
2023-04-22T18:02:59.995Z,15.80
2023-04-22T18:05:29.777Z,15.70
2023-04-22T18:08:02.585Z,15.70
2023-04-22T18:10:30.299Z,15.70
2023-04-22T18:12:57.126Z,15.60
2023-04-22T18:15:23.970Z,15.60
2023-04-22T18:17:51.286Z,15.50
2023-04-22T18:20:19.483Z,15.60
2023-04-22T18:22:48.224Z,15.60
2023-04-22T18:25:15.932Z,15.60
2023-04-22T18:27:42.919Z,15.60
2023-04-22T18:30:10.148Z,15.70
2023-04-22T18:32:37.666Z,15.70
2023-04-22T18:35:05.075Z,15.70
2023-04-22T18:37:34.532Z,15.60
2023-04-22T18:40:02.317Z,15.50
2023-04-22T18:42:29.189Z,15.40
2023-04-22T18:44:56.090Z,15.40
2023-04-22T18:47:23.142Z,15.30
2023-04-22T18:49:50.012Z,15.20
2023-04-22T18:52:17.495Z,15.10
2023-04-22T18:54:44.513Z,14.90
2023-04-22T18:57:11.330Z,14.90
2023-04-22T18:59:38.458Z,14.80
2023-04-22T19:02:06.555Z,14.70
2023-04-22T19:04:33.640Z,14.50
2023-04-22T19:07:00.933Z,14.60
2023-04-22T19:09:27.828Z,14.60
2023-04-22T19:11:55.273Z,14.70
2023-04-22T19:14:22.150Z,14.80
2023-04-22T19:16:49.296Z,14.80
2023-04-22T19:19:16.210Z,14.80
2023-04-22T19:21:43.605Z,14.50
2023-04-22T19:24:10.733Z,14.40
2023-04-22T19:26:37.721Z,14.40
2023-04-22T19:29:04.525Z,14.40
2023-04-22T19:31:31.699Z,14.40
2023-04-22T19:33:59.196Z,14.40
2023-04-22T19:36:25.967Z,14.30
2023-04-22T19:38:52.793Z,14.20
2023-04-22T19:41:19.653Z,14.10
2023-04-22T19:43:46.941Z,14.10
2023-04-22T19:46:13.897Z,14.10
2023-04-22T19:48:40.948Z,13.90
2023-04-22T19:51:07.898Z,13.90
2023-04-22T19:53:35.521Z,13.80
2023-04-22T19:56:03.114Z,13.80
2023-04-22T19:58:31.590Z,13.80
2023-04-22T20:00:58.673Z,13.80
2023-04-22T20:03:26.331Z,13.70
2023-04-22T20:05:54.596Z,13.70
2023-04-22T20:08:25.800Z,13.90
2023-04-22T20:10:53.619Z,13.80
2023-04-22T20:13:21.144Z,13.90
2023-04-22T20:15:48.099Z,13.90
2023-04-22T20:18:15.057Z,13.80
2023-04-22T20:20:44.878Z,13.80
2023-04-22T20:23:14.279Z,13.80
2023-04-22T20:25:47.014Z,13.80
2023-04-22T20:28:14.419Z,13.80
2023-04-22T20:30:41.505Z,13.70
2023-04-22T20:33:10.697Z,13.70
2023-04-22T20:35:38.909Z,13.70
2023-04-22T20:38:06.816Z,13.70
2023-04-22T20:40:34.795Z,13.70
2023-04-22T20:43:02.531Z,13.70
2023-04-22T20:45:29.346Z,13.70
2023-04-22T20:47:58.250Z,13.70
2023-04-22T20:50:25.785Z,13.50
2023-04-22T20:52:53.259Z,13.50
2023-04-22T20:55:20.215Z,13.50
2023-04-22T20:57:46.983Z,13.50
2023-04-22T21:00:14.344Z,13.50
2023-04-22T21:02:42.797Z,13.50
2023-04-22T21:05:11.375Z,13.50
2023-04-22T21:07:43.523Z,13.50
2023-04-22T21:10:10.805Z,13.40
2023-04-22T21:12:38.345Z,13.40
2023-04-22T21:15:06.150Z,13.30
2023-04-22T21:17:35.245Z,13.30
2023-04-22T21:20:04.904Z,13.30
2023-04-22T21:22:32.677Z,13.10
2023-04-22T21:25:00.193Z,13.10
2023-04-22T21:27:27.433Z,13.10
2023-04-22T21:29:54.611Z,13.10
2023-04-22T21:32:21.693Z,13.10
2023-04-22T21:34:48.589Z,13.10
2023-04-22T21:37:15.680Z,13.10
2023-04-22T21:39:42.711Z,13.10
2023-04-22T21:42:09.521Z,13.10
2023-04-22T21:44:37.735Z,13.10
2023-04-22T21:47:06.280Z,13.10
2023-04-22T21:49:33.084Z,13.00
2023-04-22T21:52:00.035Z,13.00
2023-04-22T21:54:27.036Z,13.00
2023-04-22T21:56:53.874Z,12.90
2023-04-22T21:59:20.639Z,13.00
2023-04-22T22:01:47.501Z,13.00
2023-04-22T22:04:15.987Z,12.90
2023-04-22T22:06:45.120Z,13.00
2023-04-22T22:09:12.696Z,12.90
2023-04-22T22:11:39.571Z,12.90
2023-04-22T22:14:06.447Z,12.90
2023-04-22T22:16:33.656Z,12.90
2023-04-22T22:19:02.792Z,12.80
2023-04-22T22:21:31.291Z,12.90
2023-04-22T22:23:58.105Z,12.80
2023-04-22T22:26:25.058Z,12.70
2023-04-22T22:28:51.872Z,12.80
2023-04-22T22:31:18.925Z,12.80
2023-04-22T22:33:45.883Z,12.80
2023-04-22T22:36:12.912Z,12.90
2023-04-22T22:38:39.743Z,12.80
2023-04-22T22:41:06.497Z,12.80
2023-04-22T22:43:33.295Z,12.80
2023-04-22T22:46:00.415Z,12.80
2023-04-22T22:48:27.539Z,12.80
2023-04-22T22:50:54.332Z,12.90
2023-04-22T22:53:21.433Z,12.90
2023-04-22T22:55:48.254Z,12.90
2023-04-22T22:58:15.119Z,12.90
2023-04-22T23:00:42.196Z,12.90
2023-04-22T23:03:09.278Z,13.00
2023-04-22T23:05:36.288Z,13.00
2023-04-22T23:08:03.251Z,13.00
2023-04-22T23:10:30.155Z,13.00
2023-04-22T23:12:56.960Z,13.00
2023-04-22T23:15:23.720Z,13.00
2023-04-22T23:17:51.174Z,13.00
2023-04-22T23:20:18.631Z,12.90
2023-04-22T23:22:47.804Z,12.90
2023-04-22T23:25:15.414Z,12.90
2023-04-22T23:27:42.635Z,12.90
2023-04-22T23:30:09.795Z,12.90
2023-04-22T23:32:40.075Z,13.00
2023-04-22T23:35:08.383Z,12.90
2023-04-22T23:37:37.839Z,13.00
2023-04-22T23:40:06.714Z,12.90
2023-04-22T23:42:33.513Z,13.00
2023-04-22T23:45:00.322Z,12.90
2023-04-22T23:47:27.382Z,12.90
2023-04-22T23:49:54.256Z,12.90
2023-04-22T23:52:21.063Z,12.90
2023-04-22T23:54:48.265Z,12.80
2023-04-22T23:57:16.139Z,12.80
2023-04-22T23:59:43.558Z,12.70
